Time;durP1;ratioP1;P1;durP2;ratioP2;P2;SDS_P1;SDS_P2;PMS_P1;PMS_P2;Temp;Humidity;BMP_temperature;BMP_pressure;BME280_temperature;BME280_humidity;BME280_pressure;Samples;Min_cycle;Max_cycle;Signal;HPM_P1;HPM_P2
2022/07/08 00:00:56;;;;;;;7.47;2.13;;;;;;;;;;4991631;28;20133;-61
2022/07/08 00:03:23;;;;;;;16.13;3.53;;;;;;;;;;4990644;28;20121;-61
2022/07/08 00:05:49;;;;;;;7.63;1.97;;;;;;;;;;4990840;28;20496;-62
2022/07/08 00:08:14;;;;;;;11.83;1.90;;;;;;;;;;4986893;28;20137;-61
2022/07/08 00:10:41;;;;;;;9.67;1.53;;;;;;;;;;4991234;28;20129;-61
2022/07/08 00:13:07;;;;;;;7.33;2.03;;;;;;;;;;4991264;28;20096;-61
2022/07/08 00:15:33;;;;;;;13.53;2.47;;;;;;;;;;4991361;28;20186;-61
2022/07/08 00:17:59;;;;;;;11.57;1.97;;;;;;;;;;4991091;28;20133;-61
2022/07/08 00:20:25;;;;;;;9.57;1.83;;;;;;;;;;4990179;28;20034;-62
2022/07/08 00:22:51;;;;;;;11.57;2.07;;;;;;;;;;4990621;28;20505;-62
2022/07/08 00:25:17;;;;;;;11.13;2.00;;;;;;;;;;4991160;28;20093;-61
2022/07/08 00:27:43;;;;;;;7.10;1.63;;;;;;;;;;4990642;28;20428;-62
2022/07/08 00:30:10;;;;;;;9.83;1.93;;;;;;;;;;4991372;28;20077;-61
2022/07/08 00:32:38;;;;;;;7.13;2.73;;;;;;;;;;4989807;28;20085;-61
2022/07/08 00:35:05;;;;;;;9.90;1.83;;;;;;;;;;4990694;28;20046;-61
2022/07/08 00:37:31;;;;;;;9.80;1.83;;;;;;;;;;4990250;28;20386;-61
2022/07/08 00:39:58;;;;;;;10.90;2.10;;;;;;;;;;4988225;28;20108;-62
2022/07/08 00:42:24;;;;;;;10.67;2.00;;;;;;;;;;4988680;28;20054;-61
2022/07/08 00:44:50;;;;;;;10.63;1.80;;;;;;;;;;4990683;28;20054;-61
2022/07/08 00:47:16;;;;;;;8.90;1.83;;;;;;;;;;4990670;28;20047;-61
2022/07/08 00:49:42;;;;;;;6.43;1.50;;;;;;;;;;4982260;28;20133;-61
2022/07/08 00:52:08;;;;;;;12.73;2.40;;;;;;;;;;4990070;28;20585;-61
2022/07/08 00:54:34;;;;;;;9.43;1.57;;;;;;;;;;4990019;28;20814;-61
2022/07/08 00:57:01;;;;;;;8.00;2.30;;;;;;;;;;4990153;28;20109;-61
2022/07/08 00:59:28;;;;;;;13.23;2.07;;;;;;;;;;4990890;28;20073;-62
2022/07/08 01:01:54;;;;;;;8.90;1.90;;;;;;;;;;4990437;28;20519;-61
2022/07/08 01:04:20;;;;;;;7.70;1.57;;;;;;;;;;4988984;28;20038;-62
2022/07/08 01:06:46;;;;;;;9.93;2.07;;;;;;;;;;4988854;28;20463;-61
2022/07/08 01:09:14;;;;;;;11.00;1.97;;;;;;;;;;4990050;28;20042;-61
2022/07/08 01:11:41;;;;;;;11.07;2.50;;;;;;;;;;4990423;28;20053;-61
2022/07/08 01:14:07;;;;;;;12.90;2.70;;;;;;;;;;4989096;28;20044;-61
2022/07/08 01:16:33;;;;;;;8.33;2.00;;;;;;;;;;4989864;28;20417;-61
2022/07/08 01:18:59;;;;;;;10.67;2.10;;;;;;;;;;4989887;28;20052;-61
2022/07/08 01:21:25;;;;;;;8.20;1.77;;;;;;;;;;4989661;28;20129;-62
2022/07/08 01:23:51;;;;;;;13.23;2.20;;;;;;;;;;4989589;28;20193;-61
2022/07/08 01:26:17;;;;;;;15.43;2.23;;;;;;;;;;4989495;28;20081;-61
2022/07/08 01:28:44;;;;;;;7.77;2.10;;;;;;;;;;4989794;28;20046;-61
2022/07/08 01:31:10;;;;;;;11.13;1.70;;;;;;;;;;4989730;28;20042;-61
2022/07/08 01:33:36;;;;;;;8.17;2.07;;;;;;;;;;4987988;28;20839;-61
2022/07/08 01:36:02;;;;;;;12.80;2.33;;;;;;;;;;4989480;28;20049;-61
2022/07/08 01:38:28;;;;;;;7.63;2.00;;;;;;;;;;4989992;28;20046;-61
2022/07/08 01:40:54;;;;;;;12.23;2.03;;;;;;;;;;4989224;28;20045;-61
2022/07/08 01:43:20;;;;;;;8.43;2.00;;;;;;;;;;4989485;28;20378;-61
2022/07/08 01:45:47;;;;;;;8.10;1.97;;;;;;;;;;4989544;28;20070;-61
2022/07/08 01:48:13;;;;;;;8.87;2.03;;;;;;;;;;4989126;28;20579;-61
2022/07/08 01:50:39;;;;;;;9.87;2.27;;;;;;;;;;4988970;28;20093;-61
2022/07/08 01:53:05;;;;;;;7.43;1.90;;;;;;;;;;4989581;28;20049;-61
2022/07/08 01:55:31;;;;;;;10.67;1.63;;;;;;;;;;4989333;28;20459;-61
2022/07/08 01:57:57;;;;;;;10.27;2.27;;;;;;;;;;4988848;28;20052;-61
2022/07/08 02:00:23;;;;;;;10.33;2.07;;;;;;;;;;4989115;28;20130;-61
2022/07/08 02:02:49;;;;;;;10.17;2.07;;;;;;;;;;4989261;28;20128;-61
2022/07/08 02:05:15;;;;;;;10.47;2.50;;;;;;;;;;4988948;28;20049;-61
2022/07/08 02:07:42;;;;;;;12.40;2.87;;;;;;;;;;4988895;28;20131;-61
2022/07/08 02:10:08;;;;;;;9.43;2.20;;;;;;;;;;4988964;28;20113;-61
2022/07/08 02:12:35;;;;;;;8.00;2.13;;;;;;;;;;4988993;28;20074;-61
2022/07/08 02:15:03;;;;;;;8.17;1.87;;;;;;;;;;4989257;28;20057;-61
2022/07/08 02:17:30;;;;;;;18.57;2.40;;;;;;;;;;4991471;28;20495;-61
2022/07/08 02:19:57;;;;;;;14.20;2.40;;;;;;;;;;4992535;28;20042;-61
2022/07/08 02:22:23;;;;;;;11.33;2.93;;;;;;;;;;4993346;28;20054;-61
2022/07/08 02:24:49;;;;;;;13.93;3.37;;;;;;;;;;4993168;28;20050;-61
2022/07/08 02:27:15;;;;;;;15.53;3.17;;;;;;;;;;4992341;28;20082;-61
2022/07/08 02:29:41;;;;;;;8.17;3.00;;;;;;;;;;4984552;28;20050;-61
2022/07/08 02:32:07;;;;;;;16.27;3.37;;;;;;;;;;4992292;28;20050;-61
2022/07/08 02:34:34;;;;;;;8.67;2.43;;;;;;;;;;4992084;28;20042;-61
2022/07/08 02:37:00;;;;;;;9.43;2.50;;;;;;;;;;4983783;28;20042;-61
2022/07/08 02:39:26;;;;;;;11.70;2.90;;;;;;;;;;4986082;28;20500;-61
2022/07/08 02:41:52;;;;;;;16.57;2.77;;;;;;;;;;4992255;28;20042;-61
2022/07/08 02:44:18;;;;;;;13.27;2.60;;;;;;;;;;4992061;28;20038;-61
2022/07/08 02:46:45;;;;;;;11.00;2.93;;;;;;;;;;4991284;28;20131;-61
2022/07/08 02:49:11;;;;;;;14.70;2.67;;;;;;;;;;4991869;28;20053;-61
2022/07/08 02:51:38;;;;;;;9.57;2.13;;;;;;;;;;4991049;28;20082;-61
2022/07/08 02:54:04;;;;;;;11.77;2.67;;;;;;;;;;4983362;28;20501;-62
2022/07/08 02:56:30;;;;;;;9.60;2.50;;;;;;;;;;4988396;28;20117;-61
2022/07/08 02:58:57;;;;;;;11.00;3.03;;;;;;;;;;4991830;28;20054;-61
2022/07/08 03:01:23;;;;;;;11.10;2.60;;;;;;;;;;4991134;28;20038;-61
2022/07/08 03:03:49;;;;;;;15.73;2.70;;;;;;;;;;4988156;28;20413;-61
2022/07/08 03:06:15;;;;;;;10.33;2.53;;;;;;;;;;4991415;28;20050;-61
2022/07/08 03:08:41;;;;;;;7.70;2.37;;;;;;;;;;4991133;28;20463;-61
2022/07/08 03:11:07;;;;;;;7.23;2.80;;;;;;;;;;4989488;28;20501;-61
2022/07/08 03:13:35;;;;;;;14.07;3.03;;;;;;;;;;4991104;28;20042;-61
2022/07/08 03:16:01;;;;;;;7.73;3.03;;;;;;;;;;4982366;28;20110;-61
2022/07/08 03:18:28;;;;;;;11.33;3.47;;;;;;;;;;4990559;28;20042;-61
2022/07/08 03:20:54;;;;;;;17.73;3.50;;;;;;;;;;4991390;28;20038;-61
2022/07/08 03:23:20;;;;;;;12.83;3.33;;;;;;;;;;4986841;28;20062;-61
2022/07/08 03:25:46;;;;;;;11.67;4.00;;;;;;;;;;4980400;28;20543;-61
2022/07/08 03:28:12;;;;;;;12.80;3.40;;;;;;;;;;4981051;28;20053;-61
2022/07/08 03:30:38;;;;;;;9.80;3.40;;;;;;;;;;4980192;28;20051;-61
2022/07/08 03:33:04;;;;;;;10.53;3.47;;;;;;;;;;4985529;28;20117;-61
2022/07/08 03:35:30;;;;;;;14.93;3.40;;;;;;;;;;4985132;28;20035;-61
2022/07/08 03:37:56;;;;;;;15.50;3.30;;;;;;;;;;4990278;28;20121;-62
2022/07/08 03:43:06;;;;;;;7.70;2.70;;;;;;;;;;4981936;28;20050;-61
2022/07/08 03:45:32;;;;;;;7.87;2.83;;;;;;;;;;4983018;28;20050;-62
2022/07/08 03:48:00;;;;;;;12.03;2.83;;;;;;;;;;4983885;28;20619;-62
2022/07/08 03:50:26;;;;;;;6.90;2.40;;;;;;;;;;4985510;28;20117;-62
2022/07/08 03:52:53;;;;;;;14.97;4.00;;;;;;;;;;4982570;28;20049;-61
2022/07/08 03:55:22;;;;;;;15.73;3.57;;;;;;;;;;4986232;28;20060;-62
2022/07/08 03:57:48;;;;;;;8.40;2.87;;;;;;;;;;4983201;28;20050;-62
2022/07/08 04:00:14;;;;;;;10.47;3.00;;;;;;;;;;4988613;28;20528;-62
2022/07/08 04:02:40;;;;;;;11.30;3.63;;;;;;;;;;4984232;28;20081;-61
2022/07/08 04:05:06;;;;;;;12.30;3.13;;;;;;;;;;4982699;28;20054;-61
2022/07/08 04:07:32;;;;;;;12.93;3.03;;;;;;;;;;4981995;28;20042;-62
2022/07/08 04:09:58;;;;;;;14.37;3.63;;;;;;;;;;4987022;28;20046;-62
2022/07/08 04:12:24;;;;;;;10.90;2.40;;;;;;;;;;4985052;28;20412;-61
2022/07/08 04:14:50;;;;;;;9.40;3.00;;;;;;;;;;4982545;28;20047;-62
2022/07/08 04:17:16;;;;;;;9.83;2.73;;;;;;;;;;4984589;28;20035;-62
2022/07/08 04:19:42;;;;;;;12.73;3.47;;;;;;;;;;4979179;28;20042;-62
2022/07/08 04:22:08;;;;;;;7.43;2.80;;;;;;;;;;4990405;28;20432;-62
2022/07/08 04:24:35;;;;;;;12.60;2.97;;;;;;;;;;4989965;28;20050;-61
2022/07/08 04:27:01;;;;;;;6.30;2.50;;;;;;;;;;4990514;28;20050;-62
2022/07/08 04:29:27;;;;;;;13.00;3.20;;;;;;;;;;4989052;28;20050;-62
2022/07/08 04:31:53;;;;;;;19.60;3.90;;;;;;;;;;4989454;28;20125;-62
2022/07/08 04:34:19;;;;;;;10.80;3.07;;;;;;;;;;4988579;28;20420;-61
2022/07/08 04:36:45;;;;;;;12.63;3.10;;;;;;;;;;4988944;28;20133;-62
2022/07/08 04:39:11;;;;;;;11.07;3.23;;;;;;;;;;4988051;28;20157;-62
2022/07/08 04:41:37;;;;;;;9.30;3.27;;;;;;;;;;4987972;28;20056;-62
2022/07/08 04:44:03;;;;;;;13.47;3.33;;;;;;;;;;4990338;28;20058;-62
2022/07/08 04:46:29;;;;;;;11.33;3.27;;;;;;;;;;4989508;28;20092;-62
2022/07/08 04:48:56;;;;;;;12.93;3.23;;;;;;;;;;4990102;28;20069;-62
2022/07/08 04:51:23;;;;;;;15.47;3.43;;;;;;;;;;4989788;28;20046;-62
2022/07/08 04:53:49;;;;;;;10.07;2.40;;;;;;;;;;4986952;28;20054;-62
2022/07/08 04:56:15;;;;;;;12.27;3.03;;;;;;;;;;4986877;28;20057;-62
2022/07/08 04:58:41;;;;;;;9.40;2.40;;;;;;;;;;4989587;28;20097;-61
2022/07/08 05:01:07;;;;;;;9.50;2.77;;;;;;;;;;4993421;28;20045;-62
2022/07/08 05:03:33;;;;;;;10.80;2.50;;;;;;;;;;5001607;28;20063;-62
2022/07/08 05:05:59;;;;;;;13.90;2.53;;;;;;;;;;4989720;28;20046;-62
2022/07/08 05:08:25;;;;;;;14.63;2.83;;;;;;;;;;4988653;28;20084;-62
2022/07/08 05:10:51;;;;;;;9.13;2.13;;;;;;;;;;4989655;28;20046;-62
2022/07/08 05:13:17;;;;;;;12.50;2.53;;;;;;;;;;4988563;28;20046;-62
2022/07/08 05:15:44;;;;;;;12.97;2.60;;;;;;;;;;4993717;28;20408;-62
2022/07/08 05:18:10;;;;;;;11.73;2.30;;;;;;;;;;4988227;28;20035;-62
2022/07/08 05:20:36;;;;;;;8.87;2.10;;;;;;;;;;4988284;28;20054;-62
2022/07/08 05:23:03;;;;;;;8.77;2.10;;;;;;;;;;4988965;28;20061;-62
2022/07/08 05:25:29;;;;;;;19.17;2.53;;;;;;;;;;4988955;28;20125;-62
2022/07/08 05:27:55;;;;;;;17.20;2.73;;;;;;;;;;4989415;28;20053;-62
2022/07/08 05:30:21;;;;;;;12.20;3.40;;;;;;;;;;4989144;28;20463;-62
2022/07/08 05:32:47;;;;;;;11.87;2.90;;;;;;;;;;4989070;28;20050;-62
2022/07/08 05:35:13;;;;;;;13.50;2.83;;;;;;;;;;4989241;28;20053;-62
2022/07/08 05:37:40;;;;;;;9.83;2.10;;;;;;;;;;4989128;28;20058;-62
2022/07/08 05:40:07;;;;;;;10.83;2.20;;;;;;;;;;4988620;28;20579;-62
2022/07/08 05:42:33;;;;;;;10.87;2.20;;;;;;;;;;4988715;28;20133;-62
2022/07/08 05:44:59;;;;;;;10.03;2.20;;;;;;;;;;4982215;28;20141;-62
2022/07/08 05:47:25;;;;;;;11.10;2.07;;;;;;;;;;4989298;28;20128;-62
2022/07/08 05:49:51;;;;;;;8.87;2.50;;;;;;;;;;4989178;28;20139;-62
2022/07/08 05:52:18;;;;;;;11.37;2.20;;;;;;;;;;4986789;28;20070;-62
2022/07/08 05:54:45;;;;;;;15.17;2.07;;;;;;;;;;4989085;28;20046;-62
2022/07/08 05:57:12;;;;;;;9.30;2.17;;;;;;;;;;4989043;28;20050;-62
2022/07/08 05:59:38;;;;;;;14.20;2.27;;;;;;;;;;4989020;28;20052;-62
2022/07/08 06:02:04;;;;;;;11.73;2.03;;;;;;;;;;5007895;28;20129;-62
2022/07/08 06:04:30;;;;;;;10.57;1.50;;;;;;;;;;4986508;28;20508;-64
2022/07/08 06:06:56;;;;;;;10.03;2.30;;;;;;;;;;4982521;28;20408;-63
2022/07/08 06:09:23;;;;;;;8.87;2.43;;;;;;;;;;4989505;28;20046;-62
2022/07/08 06:11:49;;;;;;;10.13;1.73;;;;;;;;;;4980462;28;20047;-62
2022/07/08 06:14:15;;;;;;;11.27;1.90;;;;;;;;;;4986823;28;20077;-62
2022/07/08 06:16:41;;;;;;;12.03;2.27;;;;;;;;;;4970304;28;20050;-62
2022/07/08 06:19:07;;;;;;;9.43;2.00;;;;;;;;;;4981177;28;20127;-62
2022/07/08 06:21:33;;;;;;;16.20;2.47;;;;;;;;;;4988323;28;20062;-62
2022/07/08 06:24:00;;;;;;;16.83;3.00;;;;;;;;;;4987650;28;20184;-62
2022/07/08 06:26:27;;;;;;;12.53;2.33;;;;;;;;;;4987261;28;20130;-62
2022/07/08 06:28:53;;;;;;;11.20;2.57;;;;;;;;;;4988667;28;20058;-62
2022/07/08 06:31:19;;;;;;;16.37;2.40;;;;;;;;;;4988986;28;20057;-62
2022/07/08 06:33:45;;;;;;;11.77;2.53;;;;;;;;;;4988549;28;20366;-62
2022/07/08 06:36:11;;;;;;;7.90;2.10;;;;;;;;;;4971472;28;20058;-62
2022/07/08 06:38:37;;;;;;;11.63;1.97;;;;;;;;;;4988099;28;20162;-62
2022/07/08 06:41:03;;;;;;;10.17;2.20;;;;;;;;;;4988348;28;20133;-62
2022/07/08 06:43:29;;;;;;;13.40;2.20;;;;;;;;;;4974213;28;20046;-62
2022/07/08 06:45:55;;;;;;;8.97;1.87;;;;;;;;;;4976233;28;20054;-62
2022/07/08 06:48:21;;;;;;;8.03;1.90;;;;;;;;;;4960132;28;20042;-62
2022/07/08 06:50:47;;;;;;;9.53;2.07;;;;;;;;;;4969474;28;20425;-62
2022/07/08 06:53:13;;;;;;;8.30;2.33;;;;;;;;;;4966290;28;20042;-62
2022/07/08 06:55:40;;;;;;;10.10;2.00;;;;;;;;;;4973299;28;20049;-62
2022/07/08 06:58:06;;;;;;;13.57;2.77;;;;;;;;;;4968034;28;20057;-62
2022/07/08 07:00:32;;;;;;;12.50;2.40;;;;;;;;;;4968452;28;20097;-62
2022/07/08 07:02:58;;;;;;;10.50;2.10;;;;;;;;;;4968951;28;20464;-62
2022/07/08 07:05:24;;;;;;;13.20;1.70;;;;;;;;;;4970535;28;20050;-62
2022/07/08 07:07:50;;;;;;;10.70;2.37;;;;;;;;;;4971947;28;20410;-62
2022/07/08 07:10:16;;;;;;;7.93;1.60;;;;;;;;;;4981601;28;20071;-62
2022/07/08 07:12:42;;;;;;;11.40;1.63;;;;;;;;;;4971819;28;20068;-62
2022/07/08 07:15:08;;;;;;;9.53;2.10;;;;;;;;;;4970431;28;20054;-62
2022/07/08 07:17:34;;;;;;;8.33;2.20;;;;;;;;;;4979857;28;20520;-62
2022/07/08 07:20:00;;;;;;;16.17;2.37;;;;;;;;;;4979982;28;20606;-62
2022/07/08 07:22:26;;;;;;;18.53;2.87;;;;;;;;;;4971936;28;20125;-63
2022/07/08 07:24:52;;;;;;;11.73;2.00;;;;;;;;;;4972277;28;20134;-62
2022/07/08 07:27:18;;;;;;;13.97;2.50;;;;;;;;;;4972058;28;20050;-62
2022/07/08 07:29:44;;;;;;;9.50;2.10;;;;;;;;;;4953586;28;20119;-62
2022/07/08 07:32:10;;;;;;;11.93;2.33;;;;;;;;;;4972070;28;20089;-62
2022/07/08 07:34:36;;;;;;;10.37;1.90;;;;;;;;;;4972205;28;20055;-62
2022/07/08 07:37:02;;;;;;;7.97;1.87;;;;;;;;;;4972492;28;20081;-62
2022/07/08 07:39:28;;;;;;;10.60;1.87;;;;;;;;;;4971660;28;20105;-62
2022/07/08 07:41:54;;;;;;;13.30;2.10;;;;;;;;;;4953361;28;20109;-62
2022/07/08 07:44:20;;;;;;;10.33;2.20;;;;;;;;;;4970643;28;20147;-62
2022/07/08 07:46:47;;;;;;;10.70;2.73;;;;;;;;;;4971645;28;20129;-61
2022/07/08 07:49:13;;;;;;;10.47;2.20;;;;;;;;;;4968278;28;20501;-62
2022/07/08 07:51:39;;;;;;;8.40;2.20;;;;;;;;;;4971534;28;20054;-61
2022/07/08 07:54:05;;;;;;;16.30;3.47;;;;;;;;;;4971736;28;20162;-61
2022/07/08 07:56:31;;;;;;;8.83;1.80;;;;;;;;;;4971403;28;20141;-61
2022/07/08 07:58:57;;;;;;;11.93;2.67;;;;;;;;;;4971774;28;20136;-61
2022/07/08 08:01:23;;;;;;;9.20;1.60;;;;;;;;;;4971673;28;20484;-60
2022/07/08 08:03:50;;;;;;;10.47;2.10;;;;;;;;;;4970760;28;20089;-61
2022/07/08 08:06:16;;;;;;;21.20;3.23;;;;;;;;;;4971370;28;20113;-61
2022/07/08 08:08:42;;;;;;;12.07;2.57;;;;;;;;;;4971539;28;20077;-61
2022/07/08 08:11:08;;;;;;;10.90;2.03;;;;;;;;;;4971382;28;20047;-60
2022/07/08 08:13:34;;;;;;;9.90;2.17;;;;;;;;;;4971293;28;20051;-61
2022/07/08 08:16:00;;;;;;;9.43;1.80;;;;;;;;;;4970358;28;20524;-61
2022/07/08 08:18:26;;;;;;;7.77;1.63;;;;;;;;;;4965299;28;20404;-61
2022/07/08 08:20:52;;;;;;;5.90;1.80;;;;;;;;;;4971368;28;20042;-61
2022/07/08 08:23:18;;;;;;;10.87;2.30;;;;;;;;;;4983920;28;20050;-61
2022/07/08 08:25:44;;;;;;;8.30;1.73;;;;;;;;;;4990457;28;20841;-60
2022/07/08 08:28:10;;;;;;;7.47;2.40;;;;;;;;;;4990759;28;20062;-61
2022/07/08 08:30:36;;;;;;;10.07;1.93;;;;;;;;;;4990713;28;20050;-61
2022/07/08 08:33:02;;;;;;;11.83;2.00;;;;;;;;;;4990380;28;20496;-60
2022/07/08 08:35:28;;;;;;;7.80;2.07;;;;;;;;;;4990343;28;20046;-61
2022/07/08 08:37:54;;;;;;;5.80;1.83;;;;;;;;;;4990405;28;20054;-60
2022/07/08 08:40:22;;;;;;;9.13;2.00;;;;;;;;;;4990547;28;20058;-61
2022/07/08 08:42:48;;;;;;;7.23;2.10;;;;;;;;;;4990238;28;20052;-61
2022/07/08 08:45:14;;;;;;;10.17;2.43;;;;;;;;;;4990466;28;20051;-61
2022/07/08 08:47:40;;;;;;;8.17;1.80;;;;;;;;;;4989333;28;20049;-61
2022/07/08 08:52:52;;;;;;;10.47;2.17;;;;;;;;;;4989946;28;20042;-61
2022/07/08 08:55:29;;;;;;;10.60;1.40;;;;;;;;;;4989430;28;20527;-60
2022/07/08 08:57:57;;;;;;;9.67;2.17;;;;;;;;;;4990143;28;20129;-61
2022/07/08 09:00:24;;;;;;;6.17;1.60;;;;;;;;;;4988824;28;20085;-61
2022/07/08 09:02:50;;;;;;;7.40;1.60;;;;;;;;;;4989579;28;20050;-61
2022/07/08 09:05:16;;;;;;;7.50;1.80;;;;;;;;;;4989990;28;20050;-61
2022/07/08 09:07:43;;;;;;;9.77;1.67;;;;;;;;;;4989831;28;20046;-61
2022/07/08 09:10:11;;;;;;;9.00;1.67;;;;;;;;;;4989814;28;20420;-61
2022/07/08 09:12:37;;;;;;;5.00;1.57;;;;;;;;;;4989339;28;20109;-61
2022/07/08 09:15:04;;;;;;;9.83;2.00;;;;;;;;;;4989508;28;20505;-61
2022/07/08 09:17:30;;;;;;;9.67;2.53;;;;;;;;;;4989192;28;20540;-61
2022/07/08 09:19:56;;;;;;;11.33;2.23;;;;;;;;;;4989740;28;20085;-61
2022/07/08 09:22:23;;;;;;;9.50;1.60;;;;;;;;;;4983723;28;20489;-61
2022/07/08 09:24:49;;;;;;;10.03;2.03;;;;;;;;;;4969288;28;20106;-61
2022/07/08 09:27:15;;;;;;;12.73;3.37;;;;;;;;;;4969134;28;20136;-61
2022/07/08 09:30:00;;;;;;;6.90;1.63;;;;;;;;;;4969991;28;20047;-61
2022/07/08 09:32:26;;;;;;;3.60;1.50;;;;;;;;;;4970042;28;20132;-61
2022/07/08 09:34:52;;;;;;;5.50;1.55;;;;;;;;;;4969962;28;20144;-61
2022/07/08 09:37:19;;;;;;;7.18;1.70;;;;;;;;;;4969416;28;20082;-61
2022/07/08 09:39:46;;;;;;;6.97;1.60;;;;;;;;;;4969735;28;20050;-61
2022/07/08 09:42:14;;;;;;;6.18;1.65;;;;;;;;;;4969989;28;20043;-61
2022/07/08 09:44:40;;;;;;;6.53;1.67;;;;;;;;;;4969868;28;20055;-61
2022/07/08 09:47:13;;;;;;;8.30;1.75;;;;;;;;;;4969107;28;20054;-61
2022/07/08 09:49:41;;;;;;;5.75;1.73;;;;;;;;;;4969869;28;20046;-61
2022/07/08 09:52:08;;;;;;;7.57;1.80;;;;;;;;;;4969521;28;20042;-61
2022/07/08 09:54:34;;;;;;;8.15;2.17;;;;;;;;;;4969769;28;20043;-61
2022/07/08 09:57:04;;;;;;;8.25;2.00;;;;;;;;;;4969874;28;20047;-61
2022/07/08 09:59:31;;;;;;;8.30;2.40;;;;;;;;;;4969504;28;20054;-61
2022/07/08 10:01:58;;;;;;;8.93;2.78;;;;;;;;;;4969021;28;20078;-62
2022/07/08 10:04:24;;;;;;;8.15;2.00;;;;;;;;;;4969712;28;20094;-62
2022/07/08 10:06:51;;;;;;;8.15;1.77;;;;;;;;;;4969251;28;20117;-62
2022/07/08 10:09:17;;;;;;;6.15;1.30;;;;;;;;;;4969281;28;20505;-62
2022/07/08 10:11:44;;;;;;;6.22;1.70;;;;;;;;;;4952286;28;20089;-62
2022/07/08 10:14:10;;;;;;;6.32;1.58;;;;;;;;;;4969566;28;20054;-62
2022/07/08 10:16:37;;;;;;;4.82;1.77;;;;;;;;;;4969227;28;20091;-62
2022/07/08 10:19:06;;;;;;;6.85;1.67;;;;;;;;;;4969362;28;20106;-62
2022/07/08 10:21:33;;;;;;;6.60;1.95;;;;;;;;;;4969176;28;20072;-62
2022/07/08 10:23:59;;;;;;;9.13;1.90;;;;;;;;;;4969381;28;20495;-62
2022/07/08 10:26:28;;;;;;;8.43;1.70;;;;;;;;;;4969130;28;20058;-62
2022/07/08 10:29:20;;;;;;;8.63;1.70;;;;;;;;;;4969552;28;20046;-62
2022/07/08 10:31:47;;;;;;;9.80;2.10;;;;;;;;;;4966947;28;20395;-62
2022/07/08 10:34:18;;;;;;;6.13;1.70;;;;;;;;;;4969411;28;20082;-62
2022/07/08 10:36:49;;;;;;;7.90;1.67;;;;;;;;;;4969282;28;20181;-62
2022/07/08 10:39:23;;;;;;;9.15;1.90;;;;;;;;;;4972504;28;20074;-62
2022/07/08 10:42:16;;;;;;;4.68;1.60;;;;;;;;;;4973026;28;20166;-62
2022/07/08 10:44:45;;;;;;;5.85;2.08;;;;;;;;;;4970236;28;20095;-62
2022/07/08 10:47:14;;;;;;;10.93;1.90;;;;;;;;;;4973044;28;20523;-62
2022/07/08 10:49:44;;;;;;;6.78;1.63;;;;;;;;;;4972554;28;20047;-62
2022/07/08 10:52:11;;;;;;;12.00;2.15;;;;;;;;;;4973203;28;20509;-62
2022/07/08 10:54:37;;;;;;;7.88;1.77;;;;;;;;;;4972545;28;20061;-62
2022/07/08 10:57:21;;;;;;;6.13;2.22;;;;;;;;;;4972280;28;20179;-62
2022/07/08 11:00:07;;;;;;;7.20;2.10;;;;;;;;;;4972713;28;20050;-62
2022/07/08 11:02:38;;;;;;;9.02;1.98;;;;;;;;;;4972582;28;20078;-62
2022/07/08 11:05:05;;;;;;;8.18;2.03;;;;;;;;;;4972854;28;20473;-62
2022/07/08 11:07:31;;;;;;;6.32;1.63;;;;;;;;;;4971439;28;20126;-62
2022/07/08 11:09:57;;;;;;;8.48;2.30;;;;;;;;;;4972902;28;20050;-62
2022/07/08 11:12:33;;;;;;;9.10;2.05;;;;;;;;;;4972017;28;20047;-62
2022/07/08 11:15:00;;;;;;;10.10;2.03;;;;;;;;;;4971597;28;20054;-63
2022/07/08 11:17:28;;;;;;;8.68;2.03;;;;;;;;;;4972108;28;20521;-62
2022/07/08 11:19:56;;;;;;;10.18;1.83;;;;;;;;;;4972159;28;20124;-62
2022/07/08 11:22:22;;;;;;;6.55;2.08;;;;;;;;;;4971720;28;20696;-62
2022/07/08 11:24:49;;;;;;;10.30;2.20;;;;;;;;;;4968398;28;20386;-61
2022/07/08 11:27:15;;;;;;;6.38;2.28;;;;;;;;;;4971484;28;20051;-62
2022/07/08 11:29:48;;;;;;;7.35;2.17;;;;;;;;;;4972474;28;20200;-63
2022/07/08 11:32:14;;;;;;;5.30;2.22;;;;;;;;;;4971698;28;20050;-62
2022/07/08 11:34:41;;;;;;;3.72;1.52;;;;;;;;;;4956032;28;20101;-67
2022/07/08 11:37:07;;;;;;;6.75;1.80;;;;;;;;;;4980733;28;20124;-63
2022/07/08 11:39:34;;;;;;;6.00;1.52;;;;;;;;;;4969836;28;20039;-61
2022/07/08 11:42:00;;;;;;;6.75;2.10;;;;;;;;;;4971860;28;20517;-61
2022/07/08 11:44:27;;;;;;;6.35;1.98;;;;;;;;;;4971098;28;20109;-61
2022/07/08 11:46:54;;;;;;;6.70;1.95;;;;;;;;;;4971378;28;20131;-61
2022/07/08 11:49:20;;;;;;;9.23;2.05;;;;;;;;;;4970625;28;20043;-61
2022/07/08 11:51:47;;;;;;;5.15;1.90;;;;;;;;;;4969901;28;20129;-61
2022/07/08 11:54:13;;;;;;;8.18;1.83;;;;;;;;;;4970864;28;20134;-61
2022/07/08 11:56:40;;;;;;;5.55;1.55;;;;;;;;;;4971597;28;20046;-61
2022/07/08 11:59:06;;;;;;;7.38;1.67;;;;;;;;;;4962600;28;20050;-61
2022/07/08 12:01:33;;;;;;;7.22;1.77;;;;;;;;;;4952503;28;20105;-61
2022/07/08 12:03:59;;;;;;;6.53;2.47;;;;;;;;;;4952284;29;20707;-61
2022/07/08 12:06:26;;;;;;;8.25;1.98;;;;;;;;;;4952728;28;20817;-61
2022/07/08 12:08:53;;;;;;;5.18;1.70;;;;;;;;;;4954709;28;20047;-61
2022/07/08 12:11:25;;;;;;;7.72;2.20;;;;;;;;;;4972027;28;20043;-62
2022/07/08 12:13:51;;;;;;;7.53;2.13;;;;;;;;;;4971169;28;21157;-62
2022/07/08 12:16:43;;;;;;;6.80;2.47;;;;;;;;;;4973074;28;20038;-62
2022/07/08 12:19:25;;;;;;;8.23;2.00;;;;;;;;;;4958177;28;20412;-62
2022/07/08 12:21:51;;;;;;;8.35;2.08;;;;;;;;;;4991425;28;20301;-62
2022/07/08 12:24:22;;;;;;;5.00;1.80;;;;;;;;;;5010420;28;20049;-62
2022/07/08 12:26:52;;;;;;;8.02;1.95;;;;;;;;;;5009758;28;20050;-63
2022/07/08 12:29:19;;;;;;;7.22;2.15;;;;;;;;;;5010068;28;20049;-63
2022/07/08 12:31:45;;;;;;;6.05;2.00;;;;;;;;;;5010193;28;20140;-63
2022/07/08 12:34:18;;;;;;;5.97;2.13;;;;;;;;;;5009702;28;20073;-62
2022/07/08 12:36:45;;;;;;;6.93;2.03;;;;;;;;;;5010338;28;20073;-63
2022/07/08 12:39:12;;;;;;;7.50;2.30;;;;;;;;;;5009998;28;20038;-62
2022/07/08 12:41:38;;;;;;;7.07;2.47;;;;;;;;;;5009735;28;20045;-63
2022/07/08 12:44:23;;;;;;;8.68;1.90;;;;;;;;;;5006290;28;20394;-62
2022/07/08 12:46:49;;;;;;;11.45;2.65;;;;;;;;;;4990256;28;20077;-63
2022/07/08 12:49:22;;;;;;;6.93;2.20;;;;;;;;;;4990396;28;20050;-63
2022/07/08 12:51:48;;;;;;;6.40;1.98;;;;;;;;;;4989751;28;20050;-63
2022/07/08 12:54:15;;;;;;;6.97;2.78;;;;;;;;;;4990493;28;20052;-62
2022/07/08 12:56:41;;;;;;;7.25;1.90;;;;;;;;;;4990053;28;20544;-62
2022/07/08 12:59:07;;;;;;;7.30;1.80;;;;;;;;;;4990194;28;20161;-63
2022/07/08 13:01:35;;;;;;;7.50;1.75;;;;;;;;;;4989827;28;20050;-63
2022/07/08 13:04:01;;;;;;;4.38;1.58;;;;;;;;;;4989859;28;20050;-62
2022/07/08 13:06:27;;;;;;;6.05;1.65;;;;;;;;;;4989608;28;20193;-62
2022/07/08 13:08:53;;;;;;;5.60;1.90;;;;;;;;;;4990277;28;20156;-62
2022/07/08 13:11:19;;;;;;;6.20;1.92;;;;;;;;;;4989784;28;20489;-62
2022/07/08 13:13:45;;;;;;;7.30;2.50;;;;;;;;;;4989580;28;20042;-62
2022/07/08 13:16:11;;;;;;;5.60;1.77;;;;;;;;;;4989668;28;20416;-62
2022/07/08 13:18:37;;;;;;;6.80;2.28;;;;;;;;;;4989312;28;20412;-62
2022/07/08 13:21:03;;;;;;;5.75;2.10;;;;;;;;;;4988914;28;20481;-63
2022/07/08 13:23:30;;;;;;;10.38;2.65;;;;;;;;;;4989425;28;20058;-62
2022/07/08 13:25:55;;;;;;;7.70;2.25;;;;;;;;;;4989442;28;20093;-63
2022/07/08 13:28:21;;;;;;;6.93;1.80;;;;;;;;;;4989317;28;20073;-62
2022/07/08 13:30:47;;;;;;;7.45;2.88;;;;;;;;;;4987480;28;20498;-62
2022/07/08 13:33:13;;;;;;;6.38;2.25;;;;;;;;;;4989171;28;20050;-62
2022/07/08 13:35:40;;;;;;;8.43;2.38;;;;;;;;;;4988211;28;20511;-62
2022/07/08 13:38:06;;;;;;;7.50;1.98;;;;;;;;;;4989105;28;20085;-63
2022/07/08 13:40:32;;;;;;;9.48;2.40;;;;;;;;;;4988640;28;20054;-62
2022/07/08 13:42:58;;;;;;;8.27;2.65;;;;;;;;;;4988824;28;20053;-62
2022/07/08 13:45:24;;;;;;;7.72;2.22;;;;;;;;;;4989266;28;20050;-62
2022/07/08 13:47:50;;;;;;;6.00;2.00;;;;;;;;;;4989313;28;20042;-62
2022/07/08 13:50:16;;;;;;;7.45;2.28;;;;;;;;;;4988508;28;20543;-62
2022/07/08 13:52:43;;;;;;;7.35;2.53;;;;;;;;;;4987846;28;20050;-62
2022/07/08 13:55:09;;;;;;;6.25;1.92;;;;;;;;;;4988075;28;20046;-62
2022/07/08 13:57:35;;;;;;;6.20;2.13;;;;;;;;;;4988040;28;20778;-62
2022/07/08 14:00:02;;;;;;;8.25;2.45;;;;;;;;;;4988889;28;20046;-62
2022/07/08 14:02:28;;;;;;;15.38;2.50;;;;;;;;;;4988724;28;20073;-62
2022/07/08 14:04:54;;;;;;;7.43;2.30;;;;;;;;;;4988975;28;20408;-62
2022/07/08 14:07:20;;;;;;;8.05;1.95;;;;;;;;;;4988541;28;20409;-61
2022/07/08 14:09:46;;;;;;;6.30;2.30;;;;;;;;;;4989124;28;20824;-61
2022/07/08 14:12:12;;;;;;;8.63;2.05;;;;;;;;;;4990269;28;20575;-61
2022/07/08 14:14:38;;;;;;;6.05;1.80;;;;;;;;;;4994504;28;20050;-60
2022/07/08 14:17:05;;;;;;;6.50;2.00;;;;;;;;;;4994441;28;20109;-61
2022/07/08 14:19:31;;;;;;;6.68;2.10;;;;;;;;;;4994959;28;20050;-61
2022/07/08 14:21:57;;;;;;;6.95;1.95;;;;;;;;;;4995015;28;20069;-61
2022/07/08 14:24:24;;;;;;;6.13;2.42;;;;;;;;;;4994126;28;20105;-61
2022/07/08 14:26:50;;;;;;;7.13;2.28;;;;;;;;;;4993372;28;20053;-61
2022/07/08 14:29:16;;;;;;;5.72;1.75;;;;;;;;;;4992879;28;20084;-61
2022/07/08 14:31:42;;;;;;;8.18;2.50;;;;;;;;;;4992715;28;20085;-61
2022/07/08 14:34:08;;;;;;;8.02;2.35;;;;;;;;;;4991892;28;20050;-61
2022/07/08 14:36:34;;;;;;;10.50;2.53;;;;;;;;;;4992005;28;20038;-61
2022/07/08 14:39:00;;;;;;;8.82;2.22;;;;;;;;;;4992935;28;20416;-61
2022/07/08 14:41:26;;;;;;;8.50;2.40;;;;;;;;;;4992987;28;20038;-61